Time;durP1;ratioP1;P1;durP2;ratioP2;P2;SDS_P1;SDS_P2;PMS_P1;PMS_P2;Temp;Humidity;BMP_temperature;BMP_pressure;BME280_temperature;BME280_humidity;BME280_pressure;Samples;Min_cycle;Max_cycle;Signal;HPM_P1;HPM_P2
2020/12/05 00:00:05;;;;;;;0.50;0.50;;;0.90;99.90;;;;;;5069514;28;20211;-86
2020/12/05 00:02:32;;;;;;;0.50;0.50;;;0.90;99.90;;;;;;5069042;28;20614;-85
2020/12/05 00:04:58;;;;;;;0.52;0.52;;;0.80;99.90;;;;;;5069094;28;20702;-85
2020/12/05 00:07:24;;;;;;;0.50;0.50;;;0.80;99.90;;;;;;5069384;28;20640;-85
2020/12/05 00:09:51;;;;;;;0.50;0.50;;;0.70;99.90;;;;;;5068867;28;20211;-85
2020/12/05 00:12:17;;;;;;;0.50;0.50;;;0.60;99.90;;;;;;5068753;28;20219;-85
2020/12/05 00:14:43;;;;;;;0.55;0.55;;;0.00;99.90;;;;;;5069218;28;20195;-86
2020/12/05 00:17:11;;;;;;;0.60;0.60;;;0.60;99.90;;;;;;5069213;28;20655;-85
2020/12/05 00:19:38;;;;;;;0.60;0.60;;;0.60;99.90;;;;;;5068835;28;20560;-85
2020/12/05 00:22:04;;;;;;;0.50;0.50;;;0.60;99.90;;;;;;5069195;28;20210;-85
2020/12/05 00:24:31;;;;;;;0.50;0.50;;;0.50;99.90;;;;;;5068970;28;20256;-86
2020/12/05 00:26:57;;;;;;;0.50;0.50;;;0.40;99.90;;;;;;5068582;28;20611;-86
2020/12/05 00:29:23;;;;;;;0.60;0.60;;;0.40;99.90;;;;;;5068749;28;20199;-85
2020/12/05 00:31:50;;;;;;;0.50;0.50;;;0.40;99.90;;;;;;5067919;28;20203;-86
2020/12/05 00:34:19;;;;;;;0.50;0.50;;;0.40;99.90;;;;;;5069997;28;20199;-86
2020/12/05 00:36:46;;;;;;;0.50;0.50;;;0.40;99.90;;;;;;5070200;28;20234;-86
2020/12/05 00:39:12;;;;;;;0.60;0.60;;;0.40;99.90;;;;;;5070149;28;20544;-86
2020/12/05 00:41:40;;;;;;;0.50;0.50;;;0.40;99.90;;;;;;5069716;28;20663;-86
2020/12/05 00:44:07;;;;;;;0.55;0.55;;;0.40;99.90;;;;;;5070408;28;20253;-86
2020/12/05 00:46:33;;;;;;;0.57;0.57;;;0.30;99.90;;;;;;5069883;28;20231;-86
2020/12/05 00:48:59;;;;;;;0.50;0.50;;;0.20;99.90;;;;;;5069955;28;20204;-86
2020/12/05 00:51:26;;;;;;;0.50;0.50;;;0.30;99.90;;;;;;5070189;28;20620;-86
2020/12/05 00:53:56;;;;;;;0.60;0.60;;;0.30;99.90;;;;;;5069851;28;20539;-86
2020/12/05 00:56:22;;;;;;;0.50;0.50;;;0.30;99.90;;;;;;5070194;28;20212;-86
2020/12/05 00:58:50;;;;;;;0.50;0.50;;;0.30;99.90;;;;;;5069929;28;20272;-86
2020/12/05 01:01:17;;;;;;;0.60;0.60;;;0.20;99.90;;;;;;5069582;28;20295;-86
2020/12/05 01:03:44;;;;;;;0.60;0.60;;;0.20;99.90;;;;;;5070073;28;20278;-86
2020/12/05 01:06:14;;;;;;;0.52;0.52;;;0.20;99.90;;;;;;5069926;28;20231;-85
2020/12/05 01:08:41;;;;;;;0.60;0.60;;;0.10;99.90;;;;;;5069918;28;20261;-85
2020/12/05 01:11:19;;;;;;;0.60;0.60;;;0.00;99.90;;;;;;5069934;28;20239;-85
2020/12/05 01:13:47;;;;;;;0.50;0.50;;;0.10;99.90;;;;;;5069719;28;20639;-85
2020/12/05 01:16:21;;;;;;;0.50;0.50;;;0.20;99.90;;;;;;5069606;28;20222;-86
2020/12/05 01:18:49;;;;;;;0.60;0.60;;;0.20;99.90;;;;;;5069844;28;20207;-85
2020/12/05 01:21:16;;;;;;;0.50;0.50;;;0.20;99.90;;;;;;5069776;28;20207;-85
2020/12/05 01:23:44;;;;;;;0.50;0.50;;;0.20;99.90;;;;;;5069537;28;20199;-85
2020/12/05 01:26:10;;;;;;;0.50;0.50;;;0.20;99.90;;;;;;5069821;28;20255;-85
2020/12/05 01:28:37;;;;;;;0.50;0.50;;;0.20;99.90;;;;;;5069366;28;20208;-85
2020/12/05 01:31:04;;;;;;;0.50;0.50;;;0.20;99.90;;;;;;5069814;28;20204;-85
2020/12/05 01:33:31;;;;;;;0.50;0.50;;;0.20;99.90;;;;;;5069941;28;20363;-85
2020/12/05 01:35:57;;;;;;;0.50;0.50;;;0.30;99.90;;;;;;5069173;28;20203;-85
2020/12/05 01:38:23;;;;;;;0.60;0.60;;;0.30;99.90;;;;;;5069808;28;20200;-85
2020/12/05 01:40:51;;;;;;;0.55;0.55;;;0.30;99.90;;;;;;5069805;28;20245;-85
2020/12/05 01:43:20;;;;;;;0.60;0.60;;;0.30;99.90;;;;;;5069374;28;20536;-85
2020/12/05 01:45:48;;;;;;;0.50;0.50;;;0.40;99.90;;;;;;5069479;28;20227;-84
2020/12/05 01:48:15;;;;;;;0.60;0.60;;;0.40;99.90;;;;;;5069436;28;20222;-84
2020/12/05 01:50:42;;;;;;;0.60;0.60;;;0.40;99.90;;;;;;5069434;28;20218;-84
2020/12/05 01:53:08;;;;;;;0.50;0.50;;;0.40;99.90;;;;;;5069644;28;20613;-85
2020/12/05 01:55:35;;;;;;;0.50;0.50;;;0.40;99.90;;;;;;5069175;28;20624;-85
2020/12/05 01:58:01;;;;;;;0.50;0.50;;;0.40;99.90;;;;;;5072831;28;20199;-85
2020/12/05 02:00:27;;;;;;;0.50;0.50;;;0.40;99.90;;;;;;5073156;28;20212;-85
2020/12/05 02:02:54;;;;;;;0.50;0.50;;;0.40;99.90;;;;;;5072881;28;20234;-85
2020/12/05 02:05:28;;;;;;;0.50;0.50;;;0.40;99.90;;;;;;5073034;28;20275;-85
2020/12/05 02:08:04;;;;;;;0.55;0.55;;;0.40;99.90;;;;;;5072635;28;20815;-85
2020/12/05 02:10:37;;;;;;;0.50;0.50;;;0.40;99.90;;;;;;5073029;28;20357;-85
2020/12/05 02:13:10;;;;;;;0.50;0.50;;;0.40;99.90;;;;;;5073019;28;20199;-85
2020/12/05 02:15:37;;;;;;;0.50;0.50;;;0.40;99.90;;;;;;5072770;28;20650;-85
2020/12/05 02:18:06;;;;;;;0.50;0.50;;;0.30;99.90;;;;;;5072829;28;20207;-84
2020/12/05 02:20:35;;;;;;;0.50;0.50;;;0.40;99.90;;;;;;5072617;28;20199;-85
2020/12/05 02:23:11;;;;;;;0.50;0.50;;;0.40;99.90;;;;;;5072593;28;20200;-85
2020/12/05 02:25:40;;;;;;;0.50;0.50;;;0.40;99.90;;;;;;5072382;28;20224;-85
2020/12/05 02:28:07;;;;;;;0.50;0.50;;;0.30;99.90;;;;;;5072595;28;20728;-85
2020/12/05 02:30:34;;;;;;;0.50;0.50;;;0.30;99.90;;;;;;5072358;28;20245;-85
2020/12/05 02:33:00;;;;;;;0.50;0.50;;;0.40;99.90;;;;;;5072302;28;20602;-85
2020/12/05 02:35:26;;;;;;;0.50;0.50;;;0.60;99.90;;;;;;5072678;28;20204;-85
2020/12/05 02:37:57;;;;;;;0.50;0.50;;;0.30;99.90;;;;;;5072276;28;20264;-85
2020/12/05 02:40:24;;;;;;;0.50;0.50;;;0.30;99.90;;;;;;5072645;28;20339;-85
2020/12/05 02:42:50;;;;;;;0.50;0.50;;;0.30;99.90;;;;;;5072281;28;20212;-85
2020/12/05 02:45:17;;;;;;;0.60;0.60;;;0.30;99.90;;;;;;5072006;28;20250;-85
2020/12/05 02:47:43;;;;;;;0.50;0.50;;;0.30;99.90;;;;;;5072238;28;20211;-85
2020/12/05 02:50:09;;;;;;;0.50;0.50;;;0.30;99.90;;;;;;5072396;28;20281;-85
2020/12/05 02:52:36;;;;;;;0.50;0.50;;;0.30;99.90;;;;;;5072038;28;20226;-85
2020/12/05 02:55:02;;;;;;;0.50;0.50;;;0.30;99.90;;;;;;5072062;28;20195;-85
2020/12/05 02:57:29;;;;;;;0.50;0.50;;;0.30;99.90;;;;;;5072164;28;20684;-85
2020/12/05 02:59:55;;;;;;;0.50;0.50;;;0.30;99.90;;;;;;5071536;28;20199;-85
2020/12/05 03:02:21;;;;;;;0.50;0.50;;;0.30;99.90;;;;;;5072194;28;20258;-84
2020/12/05 03:04:51;;;;;;;0.50;0.50;;;0.30;99.90;;;;;;5072173;28;20230;-84
2020/12/05 03:07:18;;;;;;;0.50;0.50;;;1.20;99.90;;;;;;5071354;28;20733;-84
2020/12/05 03:09:44;;;;;;;0.50;0.50;;;0.30;99.90;;;;;;5071819;28;20205;-84
2020/12/05 03:12:10;;;;;;;0.50;0.50;;;0.30;99.90;;;;;;5071817;28;20774;-84
2020/12/05 03:14:37;;;;;;;0.50;0.50;;;0.40;99.90;;;;;;5071537;28;20253;-85
2020/12/05 03:17:05;;;;;;;0.50;0.50;;;0.40;99.90;;;;;;5071904;28;20234;-84
2020/12/05 03:19:32;;;;;;;0.50;0.50;;;0.40;99.90;;;;;;5071919;28;20195;-85
2020/12/05 03:21:58;;;;;;;0.50;0.50;;;0.40;99.90;;;;;;5071632;28;20662;-84
2020/12/05 03:24:24;;;;;;;0.50;0.50;;;0.40;99.90;;;;;;5071907;28;20200;-84
2020/12/05 03:26:50;;;;;;;0.50;0.50;;;0.40;99.90;;;;;;5071506;28;20459;-84
2020/12/05 03:29:16;;;;;;;0.50;0.50;;;0.40;99.90;;;;;;5071388;28;20214;-84
2020/12/05 03:31:48;;;;;;;0.50;0.50;;;0.50;99.90;;;;;;5071451;28;20743;-84
2020/12/05 03:34:15;;;;;;;0.50;0.50;;;0.50;99.90;;;;;;5071555;28;20302;-84
2020/12/05 03:36:41;;;;;;;0.50;0.50;;;0.50;99.90;;;;;;5071301;28;20235;-85
2020/12/05 03:39:07;;;;;;;0.50;0.50;;;0.50;99.90;;;;;;5071569;28;20287;-84
2020/12/05 03:41:33;;;;;;;0.50;0.50;;;0.50;99.90;;;;;;5071276;28;20269;-84
2020/12/05 03:44:00;;;;;;;0.50;0.50;;;0.50;99.90;;;;;;5071157;28;20698;-84
2020/12/05 03:46:26;;;;;;;0.50;0.50;;;0.50;99.90;;;;;;5071501;28;20235;-84
2020/12/05 03:48:55;;;;;;;0.50;0.50;;;0.50;99.90;;;;;;5071051;28;20203;-84
2020/12/05 03:51:21;;;;;;;0.50;0.50;;;0.60;99.90;;;;;;5071634;28;20206;-84
2020/12/05 03:53:50;;;;;;;0.50;0.50;;;0.50;99.90;;;;;;5071150;28;20261;-84
2020/12/05 03:56:16;;;;;;;0.50;0.50;;;0.50;99.90;;;;;;5071310;28;20199;-84
2020/12/05 03:58:42;;;;;;;0.50;0.50;;;0.50;99.90;;;;;;5071268;28;20199;-84
2020/12/05 04:01:08;;;;;;;0.50;0.50;;;0.50;99.90;;;;;;5071309;28;20200;-84
2020/12/05 04:03:34;;;;;;;0.50;0.50;;;0.50;99.90;;;;;;5070710;28;20659;-85
2020/12/05 04:06:02;;;;;;;0.50;0.50;;;0.60;99.90;;;;;;5070841;28;20232;-84
2020/12/05 04:08:28;;;;;;;0.50;0.50;;;0.60;99.90;;;;;;5070934;28;20249;-85
2020/12/05 04:10:55;;;;;;;0.50;0.50;;;0.60;99.90;;;;;;5070479;28;20229;-85
2020/12/05 04:13:21;;;;;;;0.50;0.50;;;0.70;99.90;;;;;;5070991;28;20257;-85
2020/12/05 04:15:47;;;;;;;0.50;0.50;;;0.70;99.90;;;;;;5070674;28;20208;-84
2020/12/05 04:18:13;;;;;;;0.50;0.50;;;0.70;99.90;;;;;;5070678;28;20200;-85
2020/12/05 04:20:39;;;;;;;0.50;0.50;;;0.70;99.90;;;;;;5070256;28;20200;-84
2020/12/05 04:23:06;;;;;;;0.50;0.50;;;0.70;99.90;;;;;;5070564;28;20287;-85
2020/12/05 04:25:32;;;;;;;0.50;0.50;;;0.70;99.90;;;;;;5070485;28;20224;-84
2020/12/05 04:28:01;;;;;;;0.50;0.50;;;0.70;99.90;;;;;;5070525;28;20555;-85
2020/12/05 04:30:27;;;;;;;0.50;0.50;;;0.80;99.90;;;;;;5070593;28;20257;-85
2020/12/05 04:32:53;;;;;;;0.52;0.52;;;0.80;99.90;;;;;;5070093;28;20325;-85
2020/12/05 04:35:20;;;;;;;0.50;0.50;;;0.80;99.90;;;;;;5070408;28;20252;-85
2020/12/05 04:37:46;;;;;;;0.50;0.50;;;0.80;99.90;;;;;;5070202;28;20290;-85
2020/12/05 04:40:13;;;;;;;0.50;0.50;;;0.80;99.90;;;;;;5070456;28;20495;-85
2020/12/05 04:42:49;;;;;;;0.50;0.50;;;0.80;99.90;;;;;;5070139;28;20199;-85
2020/12/05 04:45:16;;;;;;;0.50;0.50;;;0.80;99.90;;;;;;5069955;28;20226;-85
2020/12/05 04:47:43;;;;;;;0.50;0.50;;;0.80;99.90;;;;;;5070167;28;20721;-85
2020/12/05 04:50:11;;;;;;;0.50;0.50;;;0.80;99.90;;;;;;5070116;28;20273;-85
2020/12/05 04:52:49;;;;;;;0.50;0.50;;;0.80;99.90;;;;;;5069802;28;20207;-85
2020/12/05 04:55:16;;;;;;;0.50;0.50;;;0.90;99.90;;;;;;5070038;28;20501;-85
2020/12/05 04:57:48;;;;;;;0.50;0.50;;;0.80;99.90;;;;;;5070177;28;20203;-85
2020/12/05 05:00:16;;;;;;;0.50;0.50;;;0.80;99.90;;;;;;5070092;28;20199;-85
2020/12/05 05:02:44;;;;;;;0.50;0.50;;;0.80;99.90;;;;;;5070313;28;20238;-84
2020/12/05 05:05:13;;;;;;;0.50;0.50;;;0.80;99.90;;;;;;5070286;28;20215;-85
2020/12/05 05:07:49;;;;;;;0.50;0.50;;;0.80;99.90;;;;;;5070171;28;20560;-85
2020/12/05 05:10:19;;;;;;;0.50;0.50;;;0.90;99.90;;;;;;5069773;28;20206;-85
2020/12/05 05:12:46;;;;;;;0.50;0.50;;;0.90;99.90;;;;;;5069697;28;20322;-85
2020/12/05 05:15:28;;;;;;;0.50;0.50;;;0.90;99.90;;;;;;5069821;28;20318;-85
2020/12/05 05:17:56;;;;;;;0.50;0.50;;;1.00;99.90;;;;;;5069385;28;20229;-85
2020/12/05 05:20:23;;;;;;;0.50;0.50;;;1.00;99.90;;;;;;5070085;28;20207;-85
2020/12/05 05:22:51;;;;;;;0.50;0.50;;;0.90;99.90;;;;;;5069749;28;20639;-85
2020/12/05 05:25:21;;;;;;;0.50;0.50;;;1.10;99.90;;;;;;5069526;28;20243;-85
2020/12/05 05:27:59;;;;;;;0.50;0.50;;;0.90;99.90;;;;;;5069681;28;20200;-85
2020/12/05 05:30:26;;;;;;;0.50;0.50;;;1.00;99.90;;;;;;5069868;28;20253;-85
2020/12/05 05:33:04;;;;;;;0.50;0.50;;;1.00;99.90;;;;;;5073834;28;20202;-85
2020/12/05 05:35:36;;;;;;;0.50;0.50;;;1.00;99.90;;;;;;5073914;28;20709;-85
2020/12/05 05:38:03;;;;;;;0.50;0.50;;;1.00;99.90;;;;;;5073595;28;20199;-85
2020/12/05 05:40:30;;;;;;;0.50;0.50;;;1.00;99.90;;;;;;5073559;28;20709;-85
2020/12/05 05:42:56;;;;;;;0.50;0.50;;;0.90;99.90;;;;;;5073162;28;20206;-85
2020/12/05 05:45:23;;;;;;;0.50;0.50;;;0.90;99.90;;;;;;5073517;28;20223;-85
2020/12/05 05:47:51;;;;;;;0.50;0.50;;;0.80;99.90;;;;;;5073300;28;20203;-85
2020/12/05 05:50:22;;;;;;;0.50;0.50;;;0.80;99.90;;;;;;5073497;28;20200;-85
2020/12/05 05:53:00;;;;;;;0.50;0.50;;;0.80;99.90;;;;;;5073688;28;20208;-85
2020/12/05 05:55:43;;;;;;;0.50;0.50;;;0.80;99.90;;;;;;5073614;28;20573;-85
2020/12/05 05:58:11;;;;;;;0.50;0.50;;;0.90;99.90;;;;;;5073378;28;20204;-85
2020/12/05 06:00:39;;;;;;;0.50;0.50;;;0.90;99.90;;;;;;5073049;28;20251;-84
2020/12/05 06:03:17;;;;;;;0.50;0.50;;;0.90;99.90;;;;;;5073159;28;20203;-85
2020/12/05 06:05:45;;;;;;;0.50;0.50;;;0.90;99.90;;;;;;5073057;28;20220;-84
2020/12/05 06:08:19;;;;;;;0.52;0.52;;;0.80;99.90;;;;;;5072946;28;20208;-84
2020/12/05 06:10:56;;;;;;;0.50;0.50;;;0.90;99.90;;;;;;5072916;28;20226;-85
2020/12/05 06:13:26;;;;;;;0.50;0.50;;;0.80;99.90;;;;;;5073237;28;20222;-84
2020/12/05 06:15:52;;;;;;;0.50;0.50;;;0.70;99.90;;;;;;5072705;28;20215;-84
2020/12/05 06:18:20;;;;;;;0.50;0.50;;;0.70;99.90;;;;;;5073115;28;20210;-84
2020/12/05 06:20:47;;;;;;;0.50;0.50;;;0.70;99.90;;;;;;5073004;28;20203;-85
2020/12/05 06:23:23;;;;;;;0.50;0.50;;;0.70;99.90;;;;;;5072548;28;20235;-84
2020/12/05 06:25:53;;;;;;;0.50;0.50;;;0.70;99.90;;;;;;5072667;28;20309;-85
2020/12/05 06:28:21;;;;;;;0.50;0.50;;;0.70;99.90;;;;;;5072781;28;20206;-85
2020/12/05 06:30:47;;;;;;;0.50;0.50;;;0.70;99.90;;;;;;5072556;28;20196;-85
2020/12/05 06:33:33;;;;;;;0.50;0.50;;;0.80;99.90;;;;;;5072450;28;20208;-84
2020/12/05 06:35:59;;;;;;;0.50;0.50;;;0.80;99.90;;;;;;5072411;28;20211;-84
2020/12/05 06:38:25;;;;;;;0.50;0.50;;;0.90;99.90;;;;;;5072742;28;20207;-85
2020/12/05 06:40:51;;;;;;;0.50;0.50;;;0.80;99.90;;;;;;5072526;28;20472;-85
2020/12/05 06:43:18;;;;;;;0.50;0.50;;;0.80;99.90;;;;;;5072051;28;20196;-84
2020/12/05 06:45:44;;;;;;;0.50;0.50;;;0.80;99.90;;;;;;5072316;28;20228;-84
2020/12/05 06:48:29;;;;;;;0.60;0.60;;;0.80;99.90;;;;;;5072407;28;20261;-84
2020/12/05 06:50:55;;;;;;;0.50;0.50;;;0.80;99.90;;;;;;5072025;28;20199;-84
2020/12/05 06:53:34;;;;;;;0.50;0.50;;;0.90;99.90;;;;;;5072596;28;20237;-84
2020/12/05 06:56:16;;;;;;;0.50;0.50;;;0.80;99.90;;;;;;5072235;28;20207;-85
2020/12/05 06:58:55;;;;;;;0.50;0.50;;;0.80;99.90;;;;;;5072456;28;20291;-85
2020/12/05 07:01:28;;;;;;;0.50;0.50;;;0.90;99.90;;;;;;5072385;28;20196;-84
2020/12/05 07:03:54;;;;;;;0.50;0.50;;;0.90;99.90;;;;;;5071607;28;20206;-85
2020/12/05 07:06:25;;;;;;;0.50;0.50;;;0.90;99.90;;;;;;5071982;28;20254;-85
2020/12/05 07:08:52;;;;;;;0.50;0.50;;;0.90;99.90;;;;;;5071854;28;20914;-85
2020/12/05 07:11:18;;;;;;;0.50;0.50;;;0.90;99.90;;;;;;5071740;28;20236;-84
2020/12/05 07:14:07;;;;;;;0.50;0.50;;;0.90;99.90;;;;;;5071861;28;20719;-84
2020/12/05 07:16:40;;;;;;;0.50;0.50;;;0.80;99.90;;;;;;5071335;28;20890;-84
2020/12/05 07:19:07;;;;;;;0.50;0.50;;;0.90;99.90;;;;;;5071338;28;20284;-84
2020/12/05 07:21:33;;;;;;;0.50;0.50;;;0.90;99.90;;;;;;5072069;28;20203;-84
2020/12/05 07:24:02;;;;;;;0.50;0.50;;;1.00;99.90;;;;;;5068993;28;20658;-84
2020/12/05 07:26:28;;;;;;;0.50;0.50;;;1.00;99.90;;;;;;5068909;28;20234;-84
2020/12/05 07:28:56;;;;;;;0.50;0.50;;;1.10;99.90;;;;;;5071071;28;20203;-84
2020/12/05 07:31:23;;;;;;;0.50;0.50;;;1.00;99.90;;;;;;5071607;28;20203;-84
2020/12/05 07:33:49;;;;;;;0.50;0.50;;;1.10;99.90;;;;;;5071187;28;20257;-84
2020/12/05 07:36:19;;;;;;;0.50;0.50;;;1.10;99.90;;;;;;5071128;28;20204;-85
2020/12/05 07:38:49;;;;;;;0.50;0.50;;;1.10;99.90;;;;;;5070824;28;20227;-85
2020/12/05 07:41:17;;;;;;;0.50;0.50;;;1.10;99.90;;;;;;5070170;28;20200;-84
2020/12/05 07:43:59;;;;;;;0.50;0.50;;;1.10;99.90;;;;;;5072076;28;20200;-85
2020/12/05 07:46:28;;;;;;;0.50;0.50;;;1.20;99.90;;;;;;5071328;28;20235;-85
2020/12/05 07:48:54;;;;;;;0.50;0.50;;;1.10;99.90;;;;;;5070894;28;20261;-84
2020/12/05 07:51:20;;;;;;;0.50;0.50;;;1.10;99.90;;;;;;5071414;28;20600;-84
2020/12/05 07:53:47;;;;;;;0.50;0.50;;;1.00;99.90;;;;;;5070545;28;20203;-84
2020/12/05 07:56:15;;;;;;;0.50;0.50;;;1.10;99.90;;;;;;5070904;28;20253;-84
2020/12/05 07:58:50;;;;;;;0.50;0.50;;;1.10;99.90;;;;;;5071158;28;20210;-84
2020/12/05 08:01:45;;;;;;;0.50;0.50;;;1.10;99.90;;;;;;5070990;28;20722;-84
2020/12/05 08:04:34;;;;;;;0.50;0.50;;;1.10;99.90;;;;;;5070643;28;20898;-84
2020/12/05 08:07:02;;;;;;;0.50;0.50;;;1.10;99.90;;;;;;5070943;28;20228;-84
2020/12/05 08:09:33;;;;;;;0.50;0.50;;;1.20;99.90;;;;;;5070909;28;20200;-84
2020/12/05 08:12:01;;;;;;;0.50;0.50;;;1.20;99.90;;;;;;5070826;28;20231;-84
2020/12/05 08:14:31;;;;;;;0.50;0.50;;;1.20;99.90;;;;;;5070789;28;20286;-84
2020/12/05 08:17:00;;;;;;;0.50;0.50;;;1.20;99.90;;;;;;5070916;28;20199;-84
2020/12/05 08:19:27;;;;;;;0.50;0.50;;;1.20;99.90;;;;;;5070909;28;20279;-84
2020/12/05 08:21:53;;;;;;;0.50;0.50;;;1.20;99.90;;;;;;5070580;28;20658;-84
2020/12/05 08:24:19;;;;;;;0.60;0.60;;;1.30;99.90;;;;;;5070865;28;20196;-85
2020/12/05 08:26:49;;;;;;;0.50;0.50;;;1.30;99.90;;;;;;5067061;28;20273;-85
2020/12/05 08:29:16;;;;;;;0.50;0.50;;;1.30;99.90;;;;;;5069599;28;20238;-85
2020/12/05 08:31:44;;;;;;;0.50;0.50;;;1.30;99.90;;;;;;5070859;28;20196;-85
2020/12/05 08:34:11;;;;;;;0.50;0.50;;;1.30;99.90;;;;;;5070645;28;20195;-85
2020/12/05 08:36:42;;;;;;;0.60;0.60;;;1.40;99.90;;;;;;5071242;28;20561;-85
2020/12/05 08:39:10;;;;;;;0.50;0.50;;;1.40;99.90;;;;;;5070953;28;20203;-84
2020/12/05 08:41:45;;;;;;;0.50;0.50;;;1.40;99.90;;;;;;5070612;28;20207;-84
2020/12/05 08:44:13;;;;;;;0.50;0.50;;;1.40;99.90;;;;;;5069462;28;20264;-84
2020/12/05 08:46:39;;;;;;;0.50;0.50;;;1.40;99.90;;;;;;5069307;28;20227;-84
2020/12/05 08:49:17;;;;;;;0.50;0.50;;;1.40;99.90;;;;;;5066577;28;20200;-84
2020/12/05 08:51:48;;;;;;;0.50;0.50;;;1.40;99.90;;;;;;5069619;28;20268;-83
2020/12/05 08:54:17;;;;;;;0.50;0.50;;;1.40;99.90;;;;;;5068362;28;20200;-84
2020/12/05 08:56:43;;;;;;;0.50;0.50;;;1.40;99.90;;;;;;5069884;28;20199;-84
2020/12/05 08:59:11;;;;;;;0.50;0.50;;;1.30;99.90;;;;;;5069523;28;20195;-84
2020/12/05 09:01:41;;;;;;;0.50;0.50;;;1.40;99.90;;;;;;5069767;28;20192;-84
2020/12/05 09:04:08;;;;;;;0.50;0.50;;;1.40;99.90;;;;;;5067288;28;20200;-84
2020/12/05 09:06:35;;;;;;;0.50;0.50;;;1.40;99.90;;;;;;5071252;28;20223;-84
2020/12/05 09:09:01;;;;;;;0.50;0.50;;;1.40;99.90;;;;;;5074415;28;20198;-84
2020/12/05 09:11:27;;;;;;;0.50;0.50;;;1.40;99.90;;;;;;5074405;28;20954;-84
2020/12/05 09:13:54;;;;;;;0.50;0.50;;;1.40;99.90;;;;;;5074172;28;20677;-84
2020/12/05 09:16:26;;;;;;;0.50;0.50;;;1.40;99.90;;;;;;5074483;28;20261;-85
2020/12/05 09:18:52;;;;;;;0.50;0.50;;;1.40;99.90;;;;;;5048251;28;20234;-86
2020/12/05 09:21:21;;;;;;;0.50;0.50;;;1.40;99.90;;;;;;5051177;28;20550;-85
2020/12/05 09:23:59;;;;;;;0.60;0.60;;;1.40;99.90;;;;;;5068293;28;20208;-85
2020/12/05 09:26:28;;;;;;;0.50;0.50;;;1.40;99.90;;;;;;5063379;28;20227;-85
2020/12/05 09:28:55;;;;;;;0.50;0.50;;;1.40;99.90;;;;;;5061480;28;20558;-84
2020/12/05 09:31:21;;;;;;;0.50;0.50;;;1.40;99.90;;;;;;5064567;28;20207;-85
2020/12/05 09:33:47;;;;;;;0.50;0.50;;;1.40;99.90;;;;;;5054417;28;20204;-84
2020/12/05 09:36:14;;;;;;;0.50;0.50;;;1.40;99.90;;;;;;5053159;28;20208;-84
2020/12/05 09:38:40;;;;;;;0.50;0.50;;;1.40;99.90;;;;;;5070846;28;20200;-84
2020/12/05 09:41:07;;;;;;;0.50;0.50;;;1.40;99.90;;;;;;5059950;28;20715;-84
2020/12/05 09:43:39;;;;;;;0.50;0.50;;;1.40;99.90;;;;;;5059002;28;20255;-83
2020/12/05 09:46:05;;;;;;;0.50;0.50;;;1.40;99.90;;;;;;5067890;28;20215;-84
2020/12/05 09:48:31;;;;;;;0.52;0.52;;;1.40;99.90;;;;;;5064053;28;20212;-83
2020/12/05 09:50:57;;;;;;;0.50;0.50;;;1.40;99.90;;;;;;5070673;28;20257;-84
2020/12/05 09:53:23;;;;;;;0.50;0.50;;;1.40;99.90;;;;;;5069715;28;20204;-84
2020/12/05 09:55:50;;;;;;;0.50;0.50;;;1.40;99.90;;;;;;5068968;28;20830;-84
2020/12/05 09:58:17;;;;;;;0.50;0.50;;;1.40;99.90;;;;;;5071364;28;20206;-84
2020/12/05 10:00:43;;;;;;;0.50;0.50;;;2.40;99.90;;;;;;5071852;28;20257;-84
2020/12/05 10:03:09;;;;;;;0.50;0.50;;;1.40;99.90;;;;;;5070556;28;20196;-83
2020/12/05 10:05:36;;;;;;;0.50;0.50;;;1.50;99.90;;;;;;5070497;28;20200;-84
2020/12/05 10:08:03;;;;;;;0.50;0.50;;;1.50;99.90;;;;;;5070452;28;20200;-85
2020/12/05 10:10:29;;;;;;;0.50;0.50;;;1.50;99.90;;;;;;5067452;28;20603;-85
2020/12/05 10:12:55;;;;;;;0.50;0.50;;;1.50;99.90;;;;;;5070381;28;20763;-85
2020/12/05 10:15:22;;;;;;;0.50;0.50;;;1.50;99.90;;;;;;5071677;28;20203;-85
2020/12/05 10:17:49;;;;;;;0.50;0.50;;;1.50;99.90;;;;;;5069752;28;20200;-85
2020/12/05 10:20:15;;;;;;;0.50;0.50;;;1.50;99.90;;;;;;5070746;28;20689;-84
2020/12/05 10:22:41;;;;;;;0.60;0.60;;;1.50;99.90;;;;;;5071030;28;20200;-84
2020/12/05 10:25:07;;;;;;;0.50;0.50;;;1.50;99.90;;;;;;5070349;28;20564;-85
2020/12/05 10:27:33;;;;;;;0.50;0.50;;;1.50;99.90;;;;;;5069498;28;20227;-85
2020/12/05 10:29:59;;;;;;;0.50;0.50;;;1.50;99.90;;;;;;5069739;28;20232;-84
2020/12/05 10:32:26;;;;;;;0.50;0.50;;;1.50;99.90;;;;;;5071547;28;20203;-85
2020/12/05 10:34:54;;;;;;;0.50;0.50;;;1.50;99.90;;;;;;5064987;28;20635;-85
2020/12/05 10:37:21;;;;;;;0.50;0.50;;;1.50;99.90;;;;;;5069878;28;20215;-85
2020/12/05 10:39:49;;;;;;;0.50;0.50;;;1.60;99.90;;;;;;5053558;28;20200;-85
2020/12/05 10:42:15;;;;;;;0.60;0.60;;;1.60;99.90;;;;;;5061463;28;20670;-85
2020/12/05 10:44:50;;;;;;;0.60;0.60;;;1.60;99.90;;;;;;5069862;28;20196;-84
2020/12/05 10:47:18;;;;;;;0.50;0.50;;;1.70;99.90;;;;;;5070575;28;20231;-84
2020/12/05 10:49:45;;;;;;;0.50;0.50;;;1.70;99.90;;;;;;5069758;28;20291;-84
2020/12/05 10:52:12;;;;;;;0.50;0.50;;;1.70;99.90;;;;;;5070423;28;20695;-84
2020/12/05 10:54:39;;;;;;;0.60;0.60;;;1.80;99.90;;;;;;5067860;28;20199;-84
2020/12/05 10:57:05;;;;;;;0.50;0.50;;;1.90;99.90;;;;;;5069904;28;20290;-84
2020/12/05 10:59:31;;;;;;;0.50;0.50;;;2.10;99.90;;;;;;5068685;28;20218;-84
2020/12/05 11:02:00;;;;;;;0.50;0.50;;;2.20;99.90;;;;;;5070117;28;20226;-84
2020/12/05 11:04:26;;;;;;;0.50;0.50;;;2.20;99.90;;;;;;5069855;28;20628;-84
2020/12/05 11:06:56;;;;;;;0.50;0.50;;;2.20;99.90;;;;;;5070006;28;20220;-84
2020/12/05 11:09:22;;;;;;;0.50;0.50;;;2.30;99.90;;;;;;5068224;28;20227;-83
2020/12/05 11:11:50;;;;;;;0.50;0.50;;;2.30;99.90;;;;;;5069069;28;20405;-84
2020/12/05 11:14:17;;;;;;;0.50;0.50;;;2.40;99.90;;;;;;5069901;28;20208;-85
2020/12/05 11:16:43;;;;;;;0.60;0.60;;;2.70;99.90;;;;;;5070455;28;20200;-84
2020/12/05 11:19:09;;;;;;;0.50;0.50;;;2.60;99.90;;;;;;5065329;28;20882;-84
2020/12/05 11:21:35;;;;;;;0.50;0.50;;;3.50;99.90;;;;;;5068173;28;20249;-84
2020/12/05 11:24:02;;;;;;;0.50;0.50;;;2.80;99.90;;;;;;5067636;28;20254;-84
2020/12/05 11:26:28;;;;;;;0.60;0.60;;;2.80;99.90;;;;;;5068734;28;20223;-84
2020/12/05 11:28:54;;;;;;;0.50;0.50;;;2.80;99.90;;;;;;5067590;28;20211;-84
2020/12/05 11:31:20;;;;;;;0.55;0.55;;;2.80;99.90;;;;;;5065581;28;20265;-84
2020/12/05 11:33:47;;;;;;;0.50;0.50;;;2.90;99.90;;;;;;5066071;28;20196;-84
2020/12/05 11:36:13;;;;;;;0.50;0.50;;;2.90;99.90;;;;;;5061096;28;20204;-84
2020/12/05 11:38:39;;;;;;;0.50;0.50;;;2.80;99.90;;;;;;5050996;28;20258;-84
2020/12/05 11:41:06;;;;;;;0.50;0.50;;;2.90;99.90;;;;;;5049734;28;20266;-84
2020/12/05 11:43:33;;;;;;;0.60;0.60;;;2.90;99.90;;;;;;5050437;28;20208;-84
2020/12/05 11:45:59;;;;;;;0.50;0.50;;;2.70;99.90;;;;;;5050735;28;20192;-84
2020/12/05 11:48:25;;;;;;;0.52;0.52;;;2.90;99.90;;;;;;5050912;28;20270;-84
2020/12/05 11:50:51;;;;;;;0.60;0.60;;;2.90;99.90;;;;;;5050259;28;20197;-84
2020/12/05 11:53:17;;;;;;;0.52;0.52;;;3.00;99.90;;;;;;5050500;28;20204;-84
2020/12/05 11:55:43;;;;;;;0.50;0.50;;;3.00;99.90;;;;;;5050767;28;20608;-84
2020/12/05 11:58:10;;;;;;;0.60;0.60;;;3.10;99.90;;;;;;5050070;28;20854;-83
2020/12/05 12:00:39;;;;;;;0.50;0.50;;;3.10;99.90;;;;;;5050758;28;20250;-83
2020/12/05 12:03:06;;;;;;;0.50;0.50;;;3.20;99.90;;;;;;5050785;28;20196;-83
2020/12/05 12:05:32;;;;;;;0.50;0.50;;;3.20;99.90;;;;;;5050403;28;20299;-84
2020/12/05 12:07:58;;;;;;;0.50;0.50;;;3.20;99.90;;;;;;5050118;28;20632;-84
2020/12/05 12:10:24;;;;;;;0.60;0.60;;;3.30;99.90;;;;;;5050251;28;20364;-84
2020/12/05 12:12:50;;;;;;;0.50;0.50;;;3.30;99.90;;;;;;5049896;28;20255;-84
2020/12/05 12:15:17;;;;;;;0.50;0.50;;;3.20;99.90;;;;;;5054095;28;20200;-84
2020/12/05 12:17:44;;;;;;;0.50;0.50;;;3.20;99.90;;;;;;5058992;28;20207;-84
2020/12/05 12:20:10;;;;;;;0.57;0.57;;;3.20;99.90;;;;;;5063092;28;20221;-85
2020/12/05 12:22:37;;;;;;;0.50;0.50;;;3.20;99.90;;;;;;5067914;28;20200;-84
2020/12/05 12:25:03;;;;;;;0.50;0.50;;;3.20;99.90;;;;;;5067050;28;20207;-84
2020/12/05 12:27:30;;;;;;;0.50;0.50;;;3.20;99.90;;;;;;5052832;28;20270;-84
2020/12/05 12:29:56;;;;;;;0.50;0.50;;;3.20;99.90;;;;;;5050272;28;20275;-84
2020/12/05 12:32:23;;;;;;;0.55;0.55;;;3.20;99.90;;;;;;5061379;28;20203;-84
2020/12/05 12:34:51;;;;;;;0.50;0.50;;;3.20;99.90;;;;;;5051716;28;20278;-84
2020/12/05 12:37:17;;;;;;;0.50;0.50;;;3.20;99.90;;;;;;5062191;28;20200;-84
2020/12/05 12:39:43;;;;;;;0.60;0.60;;;3.20;99.90;;;;;;5051428;28;20200;-85
2020/12/05 12:42:10;;;;;;;0.52;0.52;;;3.20;99.90;;;;;;5056843;28;20501;-84
2020/12/05 12:44:36;;;;;;;0.50;0.50;;;3.20;99.90;;;;;;5066878;28;20211;-84
2020/12/05 12:47:12;;;;;;;0.50;0.50;;;3.20;99.90;;;;;;5057483;28;20282;-84
2020/12/05 12:49:39;;;;;;;0.50;0.50;;;3.30;99.90;;;;;;5050364;28;20204;-84
2020/12/05 12:52:08;;;;;;;0.50;0.50;;;3.30;99.90;;;;;;5050189;28;20219;-84
2020/12/05 12:54:34;;;;;;;0.50;0.50;;;3.30;99.90;;;;;;5054051;28;20208;-84
2020/12/05 12:57:01;;;;;;;0.50;0.50;;;3.30;99.90;;;;;;5057335;28;20246;-84
2020/12/05 12:59:27;;;;;;;0.50;0.50;;;3.20;99.90;;;;;;5050451;28;20212;-84
2020/12/05 13:01:54;;;;;;;0.50;0.50;;;3.20;99.90;;;;;;5049952;28;20242;-84